sensor_id;sensor_type;location;lat;lon;timestamp;pressure;altitude;pressure_sealevel;temperature;humidity
2036;BME280;23642;42.658;23.350;2023-03-04T00:02:19;46213.28;;;-146.31;100.00
2036;BME280;23642;42.658;23.350;2023-03-04T00:04:46;46194.75;;;-146.31;100.00
2036;BME280;23642;42.658;23.350;2023-03-04T00:07:13;46275.09;;;-146.31;100.00
2036;BME280;23642;42.658;23.350;2023-03-04T00:09:43;46363.66;;;-146.31;99.51
2036;BME280;23642;42.658;23.350;2023-03-04T00:12:10;46413.09;;;-146.31;99.53
2036;BME280;23642;42.658;23.350;2023-03-04T00:14:37;46466.66;;;-146.31;99.24
2036;BME280;23642;42.658;23.350;2023-03-04T00:17:05;46549.06;;;-146.31;99.00
2036;BME280;23642;42.658;23.350;2023-03-04T00:19:31;46629.41;;;-146.31;98.54
2036;BME280;23642;42.658;23.350;2023-03-04T00:21:59;46629.41;;;-146.31;98.82
2036;BME280;23642;42.658;23.350;2023-03-04T00:24:26;46590.25;;;-146.31;99.07
2036;BME280;23642;42.658;23.350;2023-03-04T00:26:52;46534.63;;;-146.31;99.68
2036;BME280;23642;42.658;23.350;2023-03-04T00:29:19;46425.47;;;-146.31;100.00
2036;BME280;23642;42.658;23.350;2023-03-04T00:31:46;46248.31;;;-146.31;100.00
2036;BME280;23642;42.658;23.350;2023-03-04T00:34:15;46155.63;;;-146.31;100.00
2036;BME280;23642;42.658;23.350;2023-03-04T00:36:41;46089.72;;;-146.31;100.00
2036;BME280;23642;42.658;23.350;2023-03-04T00:39:09;46112.38;;;-146.31;100.00
2036;BME280;23642;42.658;23.350;2023-03-04T00:41:36;46157.69;;;-146.31;100.00
2036;BME280;23642;42.658;23.350;2023-03-04T00:44:07;46155.63;;;-146.31;100.00
2036;BME280;23642;42.658;23.350;2023-03-04T00:46:34;46139.16;;;-146.31;100.00
2036;BME280;23642;42.658;23.350;2023-03-04T00:49:01;46143.25;;;-146.31;100.00
2036;BME280;23642;42.658;23.350;2023-03-04T00:51:29;46165.91;;;-146.31;100.00
2036;BME280;23642;42.658;23.350;2023-03-04T00:53:56;46186.53;;;-146.31;100.00
2036;BME280;23642;42.658;23.350;2023-03-04T00:56:22;46248.31;;;-146.31;100.00
2036;BME280;23642;42.658;23.350;2023-03-04T00:58:49;46289.50;;;-146.31;100.00
2036;BME280;23642;42.658;23.350;2023-03-04T01:01:16;46303.94;;;-146.31;99.80
2036;BME280;23642;42.658;23.350;2023-03-04T01:03:42;46417.22;;;-146.31;99.20
2036;BME280;23642;42.658;23.350;2023-03-04T01:06:09;46441.94;;;-146.31;99.38
2036;BME280;23642;42.658;23.350;2023-03-04T01:08:38;46466.66;;;-146.31;99.49
2036;BME280;23642;42.658;23.350;2023-03-04T01:11:05;46433.69;;;-146.31;99.76
2036;BME280;23642;42.658;23.350;2023-03-04T01:13:32;46376.03;;;-146.31;99.69
2036;BME280;23642;42.658;23.350;2023-03-04T01:15:59;46423.41;;;-146.31;99.65
2036;BME280;23642;42.658;23.350;2023-03-04T01:18:27;46394.56;;;-146.31;99.96
2036;BME280;23642;42.658;23.350;2023-03-04T01:20:54;46312.16;;;-146.31;100.00
2036;BME280;23642;42.658;23.350;2023-03-04T01:23:21;46343.06;;;-146.31;99.86
2036;BME280;23642;42.658;23.350;2023-03-04T01:25:49;46359.53;;;-146.31;100.00
2036;BME280;23642;42.658;23.350;2023-03-04T01:28:16;46371.91;;;-146.31;99.81
2036;BME280;23642;42.658;23.350;2023-03-04T01:30:43;46406.94;;;-146.31;99.76
2036;BME280;23642;42.658;23.350;2023-03-04T01:33:10;46398.69;;;-146.31;99.61
2036;BME280;23642;42.658;23.350;2023-03-04T01:35:37;46388.38;;;-146.31;99.54
2036;BME280;23642;42.658;23.350;2023-03-04T01:38:06;46479.03;;;-146.31;99.44
2036;BME280;23642;42.658;23.350;2023-03-04T01:40:33;46489.31;;;-146.31;99.26
2036;BME280;23642;42.658;23.350;2023-03-04T01:43:01;46507.88;;;-146.31;99.16
2036;BME280;23642;42.658;23.350;2023-03-04T01:45:29;46544.94;;;-146.31;99.24
2036;BME280;23642;42.658;23.350;2023-03-04T01:47:57;46495.50;;;-146.31;99.62
2036;BME280;23642;42.658;23.350;2023-03-04T01:50:28;46472.84;;;-146.31;99.59
2036;BME280;23642;42.658;23.350;2023-03-04T01:52:56;46536.69;;;-146.31;99.48
2036;BME280;23642;42.658;23.350;2023-03-04T01:55:23;46540.81;;;-146.31;99.02
2036;BME280;23642;42.658;23.350;2023-03-04T01:57:51;46582.03;;;-146.31;98.95
2036;BME280;23642;42.658;23.350;2023-03-04T02:00:23;46652.06;;;-146.31;98.65
2036;BME280;23642;42.658;23.350;2023-03-04T02:02:53;46619.09;;;-146.31;98.93
2036;BME280;23642;42.658;23.350;2023-03-04T02:05:21;46557.31;;;-146.31;99.30
2036;BME280;23642;42.658;23.350;2023-03-04T02:07:49;46538.75;;;-146.31;99.36
2036;BME280;23642;42.658;23.350;2023-03-04T02:10:17;46534.63;;;-146.31;99.32
2036;BME280;23642;42.658;23.350;2023-03-04T02:12:44;46532.59;;;-146.31;99.13
2036;BME280;23642;42.658;23.350;2023-03-04T02:15:11;46538.75;;;-146.31;99.33
2036;BME280;23642;42.658;23.350;2023-03-04T02:17:40;46577.91;;;-146.31;98.91
2036;BME280;23642;42.658;23.350;2023-03-04T02:20:15;46569.66;;;-146.31;99.08
2036;BME280;23642;42.658;23.350;2023-03-04T02:22:48;46565.53;;;-146.31;99.06
2036;BME280;23642;42.658;23.350;2023-03-04T02:25:22;46522.28;;;-146.31;99.19
2036;BME280;23642;42.658;23.350;2023-03-04T02:27:51;46582.03;;;-146.31;99.00
2036;BME280;23642;42.658;23.350;2023-03-04T02:30:20;46586.16;;;-146.31;98.93
2036;BME280;23642;42.658;23.350;2023-03-04T02:32:49;46532.59;;;-146.31;99.28
2036;BME280;23642;42.658;23.350;2023-03-04T02:35:17;46565.53;;;-146.31;98.79
2036;BME280;23642;42.658;23.350;2023-03-04T02:37:44;46577.91;;;-146.31;98.98
2036;BME280;23642;42.658;23.350;2023-03-04T02:40:15;46586.16;;;-146.31;99.09
2036;BME280;23642;42.658;23.350;2023-03-04T02:42:43;46596.44;;;-146.31;99.15
2036;BME280;23642;42.658;23.350;2023-03-04T02:45:31;46551.13;;;-146.31;99.33
2036;BME280;23642;42.658;23.350;2023-03-04T02:47:59;46557.31;;;-146.31;99.15
2036;BME280;23642;42.658;23.350;2023-03-04T02:50:28;46528.47;;;-146.31;99.81
2036;BME280;23642;42.658;23.350;2023-03-04T02:52:57;46429.59;;;-146.31;100.00
2036;BME280;23642;42.658;23.350;2023-03-04T02:55:24;46231.84;;;-146.31;100.00
2036;BME280;23642;42.658;23.350;2023-03-04T02:57:52;46167.97;;;-146.31;100.00
2036;BME280;23642;42.658;23.350;2023-03-04T03:00:19;46023.81;;;-146.31;100.00
2036;BME280;23642;42.658;23.350;2023-03-04T03:02:48;45873.44;;;-146.31;100.00
2036;BME280;23642;42.658;23.350;2023-03-04T03:05:15;45708.69;;;-146.31;100.00
2036;BME280;23642;42.658;23.350;2023-03-04T03:07:44;45541.88;;;-146.31;100.00
2036;BME280;23642;42.658;23.350;2023-03-04T03:10:11;45338.00;;;-146.31;100.00
2036;BME280;23642;42.658;23.350;2023-03-04T03:12:37;45185.59;;;-146.31;100.00
2036;BME280;23642;42.658;23.350;2023-03-04T03:15:05;45022.94;;;-146.31;100.00
2036;BME280;23642;42.658;23.350;2023-03-04T03:17:32;44864.38;;;-146.31;100.00
2036;BME280;23642;42.658;23.350;2023-03-04T03:20:00;44693.50;;;-146.31;100.00
2036;BME280;23642;42.658;23.350;2023-03-04T03:22:27;44539.09;;;-146.31;100.00
2036;BME280;23642;42.658;23.350;2023-03-04T03:24:54;44362.03;;;-146.31;100.00
2036;BME280;23642;42.658;23.350;2023-03-04T03:27:20;44195.28;;;-146.31;100.00
2036;BME280;23642;42.658;23.350;2023-03-04T03:29:47;44003.84;;;-146.31;100.00
2036;BME280;23642;42.658;23.350;2023-03-04T03:32:14;43884.47;;;-146.31;100.00
2036;BME280;23642;42.658;23.350;2023-03-04T03:34:42;43833.00;;;-146.31;100.00
2036;BME280;23642;42.658;23.350;2023-03-04T03:37:10;43806.25;;;-146.31;100.00
2036;BME280;23642;42.658;23.350;2023-03-04T03:39:38;43705.38;;;-146.31;100.00
2036;BME280;23642;42.658;23.350;2023-03-04T03:42:05;43643.63;;;-146.31;100.00
2036;BME280;23642;42.658;23.350;2023-03-04T03:44:32;43464.56;;;-146.31;100.00
2036;BME280;23642;42.658;23.350;2023-03-04T03:46:58;43446.03;;;-146.31;100.00
2036;BME280;23642;42.658;23.350;2023-03-04T03:49:25;43392.53;;;-146.31;100.00
2036;BME280;23642;42.658;23.350;2023-03-04T03:51:53;43295.81;;;-146.31;100.00
2036;BME280;23642;42.658;23.350;2023-03-04T03:54:21;43186.72;;;-146.31;100.00
2036;BME280;23642;42.658;23.350;2023-03-04T03:56:48;43044.75;;;-146.31;100.00
2036;BME280;23642;42.658;23.350;2023-03-04T03:59:15;42945.97;;;-146.31;100.00
2036;BME280;23642;42.658;23.350;2023-03-04T04:01:42;42886.28;;;-146.31;100.00
2036;BME280;23642;42.658;23.350;2023-03-04T04:04:09;42676.41;;;-146.31;100.00
2036;BME280;23642;42.658;23.350;2023-03-04T04:06:36;42600.25;;;-146.31;100.00
2036;BME280;23642;42.658;23.350;2023-03-04T04:09:02;42610.56;;;-146.31;100.00
2036;BME280;23642;42.658;23.350;2023-03-04T04:11:30;42499.44;;;-146.31;100.00
2036;BME280;23642;42.658;23.350;2023-03-04T04:13:57;42489.16;;;-146.31;100.00
2036;BME280;23642;42.658;23.350;2023-03-04T04:16:24;42410.97;;;-146.31;100.00
2036;BME280;23642;42.658;23.350;2023-03-04T04:18:51;42390.41;;;-146.31;100.00
2036;BME280;23642;42.658;23.350;2023-03-04T04:21:18;42386.28;;;-146.31;100.00
2036;BME280;23642;42.658;23.350;2023-03-04T04:23:45;42349.25;;;-146.31;100.00
2036;BME280;23642;42.658;23.350;2023-03-04T04:26:11;42287.53;;;-146.31;100.00
2036;BME280;23642;42.658;23.350;2023-03-04T04:28:40;42266.94;;;-146.31;100.00
2036;BME280;23642;42.658;23.350;2023-03-04T04:31:07;42258.72;;;-146.31;100.00
2036;BME280;23642;42.658;23.350;2023-03-04T04:33:35;42190.81;;;-146.31;100.00
2036;BME280;23642;42.658;23.350;2023-03-04T04:36:02;42162.03;;;-146.31;100.00
2036;BME280;23642;42.658;23.350;2023-03-04T04:38:30;42170.25;;;-146.31;100.00
2036;BME280;23642;42.658;23.350;2023-03-04T04:40:57;42114.72;;;-146.31;100.00
2036;BME280;23642;42.658;23.350;2023-03-04T04:43:25;42055.03;;;-146.31;100.00
2036;BME280;23642;42.658;23.350;2023-03-04T04:45:54;42028.31;;;-146.31;100.00
2036;BME280;23642;42.658;23.350;2023-03-04T04:48:20;41993.31;;;-146.31;100.00
2036;BME280;23642;42.658;23.350;2023-03-04T04:50:53;41958.34;;;-146.31;100.00
2036;BME280;23642;42.658;23.350;2023-03-04T04:53:21;41974.81;;;-146.31;100.00
2036;BME280;23642;42.658;23.350;2023-03-04T04:55:48;41900.75;;;-146.31;100.00
2036;BME280;23642;42.658;23.350;2023-03-04T04:58:15;41826.69;;;-146.31;100.00
2036;BME280;23642;42.658;23.350;2023-03-04T05:00:42;41808.19;;;-146.31;100.00
2036;BME280;23642;42.658;23.350;2023-03-04T05:03:10;41748.53;;;-146.31;100.00
2036;BME280;23642;42.658;23.350;2023-03-04T05:05:39;41633.34;;;-146.31;100.00
2036;BME280;23642;42.658;23.350;2023-03-04T05:08:06;41573.69;;;-146.31;100.00
2036;BME280;23642;42.658;23.350;2023-03-04T05:10:33;41518.13;;;-146.31;100.00
2036;BME280;23642;42.658;23.350;2023-03-04T05:13:00;41450.25;;;-146.31;100.00
2036;BME280;23642;42.658;23.350;2023-03-04T05:15:26;41365.94;;;-146.31;100.00
2036;BME280;23642;42.658;23.350;2023-03-04T05:17:53;41347.41;;;-146.31;100.00
2036;BME280;23642;42.658;23.350;2023-03-04T05:20:23;41312.44;;;-146.31;100.00
2036;BME280;23642;42.658;23.350;2023-03-04T05:22:50;41254.88;;;-146.31;100.00
2036;BME280;23642;42.658;23.350;2023-03-04T05:25:17;41193.16;;;-146.31;100.00
2036;BME280;23642;42.658;23.350;2023-03-04T05:27:44;41145.84;;;-146.31;100.00
2036;BME280;23642;42.658;23.350;2023-03-04T05:30:12;41164.38;;;-146.31;100.00
2036;BME280;23642;42.658;23.350;2023-03-04T05:32:39;41115.00;;;-146.31;100.00
2036;BME280;23642;42.658;23.350;2023-03-04T05:35:06;41098.56;;;-146.31;100.00
2036;BME280;23642;42.658;23.350;2023-03-04T05:37:35;41166.41;;;-146.31;100.00
2036;BME280;23642;42.658;23.350;2023-03-04T05:40:02;41207.56;;;-146.31;100.00
2036;BME280;23642;42.658;23.350;2023-03-04T05:42:30;41248.69;;;-146.31;100.00
2036;BME280;23642;42.658;23.350;2023-03-04T05:44:58;41304.22;;;-146.31;100.00
2036;BME280;23642;42.658;23.350;2023-03-04T05:47:25;41583.97;;;-146.31;100.00
2036;BME280;23642;42.658;23.350;2023-03-04T05:49:52;42213.47;;;-146.31;100.00
2036;BME280;23642;42.658;23.350;2023-03-04T05:52:20;42995.34;;;-146.31;100.00
2036;BME280;23642;42.658;23.350;2023-03-04T05:54:48;43833.00;;;-146.31;100.00
2036;BME280;23642;42.658;23.350;2023-03-04T05:57:15;44094.41;;;-146.31;100.00
2036;BME280;23642;42.658;23.350;2023-03-04T05:59:42;44747.03;;;-146.31;100.00
2036;BME280;23642;42.658;23.350;2023-03-04T06:02:08;45502.75;;;-146.31;99.72
2036;BME280;23642;42.658;23.350;2023-03-04T06:04:35;45809.59;;;-146.31;99.03
2036;BME280;23642;42.658;23.350;2023-03-04T06:07:03;46005.25;;;-146.31;98.59
2036;BME280;23642;42.658;23.350;2023-03-04T06:09:30;46044.41;;;-146.31;98.31
2036;BME280;23642;42.658;23.350;2023-03-04T06:11:58;46135.03;;;-146.31;97.96
2036;BME280;23642;42.658;23.350;2023-03-04T06:14:25;46450.19;;;-146.31;96.52
2036;BME280;23642;42.658;23.350;2023-03-04T06:16:52;46557.31;;;-146.31;96.35
2036;BME280;23642;42.658;23.350;2023-03-04T06:19:19;46617.03;;;-146.31;96.54
2036;BME280;23642;42.658;23.350;2023-03-04T06:21:46;46773.63;;;-146.31;95.31
2036;BME280;23642;42.658;23.350;2023-03-04T06:24:13;46946.66;;;-146.31;95.14
2036;BME280;23642;42.658;23.350;2023-03-04T06:26:40;46888.97;;;-146.31;95.73
2036;BME280;23642;42.658;23.350;2023-03-04T06:29:08;46837.47;;;-146.31;96.19
2036;BME280;23642;42.658;23.350;2023-03-04T06:31:35;46893.09;;;-146.31;95.99
2036;BME280;23642;42.658;23.350;2023-03-04T06:34:02;46899.28;;;-146.31;95.79
2036;BME280;23642;42.658;23.350;2023-03-04T06:36:29;46952.84;;;-146.31;95.84
2036;BME280;23642;42.658;23.350;2023-03-04T06:38:56;47059.97;;;-146.31;95.38
2036;BME280;23642;42.658;23.350;2023-03-04T06:41:26;47210.41;;;-146.31;93.92
2036;BME280;23642;42.658;23.350;2023-03-04T06:43:55;47319.59;;;-146.31;93.84
2036;BME280;23642;42.658;23.350;2023-03-04T06:46:24;47381.41;;;-146.31;93.56
2036;BME280;23642;42.658;23.350;2023-03-04T06:48:51;47410.25;;;-146.31;93.99
2036;BME280;23642;42.658;23.350;2023-03-04T06:51:19;47393.78;;;-146.31;93.70
2036;BME280;23642;42.658;23.350;2023-03-04T06:53:46;47434.97;;;-146.31;93.61
2036;BME280;23642;42.658;23.350;2023-03-04T06:56:14;47496.81;;;-146.31;93.05
2036;BME280;23642;42.658;23.350;2023-03-04T06:58:41;47579.22;;;-146.31;92.85
2036;BME280;23642;42.658;23.350;2023-03-04T07:01:10;47628.69;;;-146.31;92.57
2036;BME280;23642;42.658;23.350;2023-03-04T07:03:38;47678.13;;;-146.31;92.71
2036;BME280;23642;42.658;23.350;2023-03-04T07:06:06;47669.91;;;-146.31;93.20
2036;BME280;23642;42.658;23.350;2023-03-04T07:08:33;47647.22;;;-146.31;92.61
2036;BME280;23642;42.658;23.350;2023-03-04T07:11:00;47692.56;;;-146.31;92.82
2036;BME280;23642;42.658;23.350;2023-03-04T07:13:27;47735.84;;;-146.31;92.27
2036;BME280;23642;42.658;23.350;2023-03-04T07:15:54;47758.50;;;-146.31;92.37
2036;BME280;23642;42.658;23.350;2023-03-04T07:18:20;47779.13;;;-146.31;92.33
2036;BME280;23642;42.658;23.350;2023-03-04T07:20:50;47772.94;;;-146.31;92.98
2036;BME280;23642;42.658;23.350;2023-03-04T07:23:17;47735.84;;;-146.31;93.09
2036;BME280;23642;42.658;23.350;2023-03-04T07:25:44;47787.34;;;-146.31;92.42
2036;BME280;23642;42.658;23.350;2023-03-04T07:28:11;47954.28;;;-146.31;91.01
2036;BME280;23642;42.658;23.350;2023-03-04T07:30:38;48112.97;;;-146.31;89.73
2036;BME280;23642;42.658;23.350;2023-03-04T07:33:05;48148.00;;;-146.31;89.57
2036;BME280;23642;42.658;23.350;2023-03-04T07:35:32;48193.34;;;-146.31;89.54
2036;BME280;23642;42.658;23.350;2023-03-04T07:38:00;48255.19;;;-146.31;89.30
2036;BME280;23642;42.658;23.350;2023-03-04T07:40:28;48308.78;;;-146.31;89.33
2036;BME280;23642;42.658;23.350;2023-03-04T07:42:55;48356.19;;;-146.31;89.70
2036;BME280;23642;42.658;23.350;2023-03-04T07:45:23;48321.13;;;-146.31;89.31
2036;BME280;23642;42.658;23.350;2023-03-04T07:47:50;48325.25;;;-146.31;89.82
2036;BME280;23642;42.658;23.350;2023-03-04T07:50:17;48426.25;;;-146.31;88.96
2036;BME280;23642;42.658;23.350;2023-03-04T07:52:47;48486.03;;;-146.31;88.07
2036;BME280;23642;42.658;23.350;2023-03-04T07:55:16;48601.47;;;-146.31;87.14
2036;BME280;23642;42.658;23.350;2023-03-04T07:57:44;48650.94;;;-146.31;87.22
2036;BME280;23642;42.658;23.350;2023-03-04T08:00:14;48725.13;;;-146.31;86.54
2036;BME280;23642;42.658;23.350;2023-03-04T08:02:42;48809.66;;;-146.31;86.35
2036;BME280;23642;42.658;23.350;2023-03-04T08:05:19;48920.97;;;-146.31;85.26
2036;BME280;23642;42.658;23.350;2023-03-04T08:07:53;48941.59;;;-146.31;85.15
2036;BME280;23642;42.658;23.350;2023-03-04T08:10:23;48935.41;;;-146.31;85.58
2036;BME280;23642;42.658;23.350;2023-03-04T08:12:50;49087.97;;;-146.31;83.66
2036;BME280;23642;42.658;23.350;2023-03-04T08:15:17;49257.00;;;-146.31;81.64
2036;BME280;23642;42.658;23.350;2023-03-04T08:17:44;49339.47;;;-146.31;81.50
2036;BME280;23642;42.658;23.350;2023-03-04T08:20:12;49485.88;;;-146.31;80.68
2036;BME280;23642;42.658;23.350;2023-03-04T08:22:39;49553.91;;;-146.31;80.27
2036;BME280;23642;42.658;23.350;2023-03-04T08:25:06;49652.88;;;-146.31;80.72
2036;BME280;23642;42.658;23.350;2023-03-04T08:27:34;49648.75;;;-146.31;81.00
2036;BME280;23642;42.658;23.350;2023-03-04T08:30:02;49607.50;;;-146.31;83.47
2036;BME280;23642;42.658;23.350;2023-03-04T08:32:29;49529.16;;;-146.31;84.64
2036;BME280;23642;42.658;23.350;2023-03-04T08:34:55;49479.69;;;-146.31;85.69
2036;BME280;23642;42.658;23.350;2023-03-04T08:37:22;49454.94;;;-146.31;86.24
2036;BME280;23642;42.658;23.350;2023-03-04T08:39:49;49475.56;;;-146.31;86.74
2036;BME280;23642;42.658;23.350;2023-03-04T08:42:15;49434.31;;;-146.31;86.82
2036;BME280;23642;42.658;23.350;2023-03-04T08:44:43;49471.44;;;-146.31;85.50
2036;BME280;23642;42.658;23.350;2023-03-04T08:47:10;49547.72;;;-146.31;84.48
2036;BME280;23642;42.658;23.350;2023-03-04T08:49:37;49601.31;;;-146.31;83.47
2036;BME280;23642;42.658;23.350;2023-03-04T08:52:04;49708.53;;;-146.31;81.39
2036;BME280;23642;42.658;23.350;2023-03-04T08:54:31;49797.22;;;-146.31;79.42
2036;BME280;23642;42.658;23.350;2023-03-04T08:57:00;49939.50;;;-146.31;77.68
2036;BME280;23642;42.658;23.350;2023-03-04T08:59:30;50017.84;;;-146.31;77.25
2036;BME280;23642;42.658;23.350;2023-03-04T09:01:58;50100.34;;;-146.31;77.02
2036;BME280;23642;42.658;23.350;2023-03-04T09:04:25;50184.88;;;-146.31;74.95
2036;BME280;23642;42.658;23.350;2023-03-04T09:06:52;50238.50;;;-146.31;74.73
2036;BME280;23642;42.658;23.350;2023-03-04T09:09:19;50310.69;;;-146.31;73.00
2036;BME280;23642;42.658;23.350;2023-03-04T09:11:46;50354.00;;;-146.31;71.94
2036;BME280;23642;42.658;23.350;2023-03-04T09:14:13;50486.00;;;-146.31;75.10
2036;BME280;23642;42.658;23.350;2023-03-04T09:16:40;50440.63;;;-146.31;76.41
2036;BME280;23642;42.658;23.350;2023-03-04T09:19:09;50558.19;;;-146.31;73.44
2036;BME280;23642;42.658;23.350;2023-03-04T09:21:35;50539.63;;;-146.31;72.18
2036;BME280;23642;42.658;23.350;2023-03-04T09:24:02;50609.75;;;-146.31;71.58
2036;BME280;23642;42.658;23.350;2023-03-04T09:26:31;50628.28;;;-146.31;70.40
2036;BME280;23642;42.658;23.350;2023-03-04T09:28:59;50642.75;;;-146.31;71.09
2036;BME280;23642;42.658;23.350;2023-03-04T09:31:29;50681.94;;;-146.31;69.78
2036;BME280;23642;42.658;23.350;2023-03-04T09:33:57;50688.13;;;-146.31;69.37
2036;BME280;23642;42.658;23.350;2023-03-04T09:36:25;50762.38;;;-146.31;69.20
2036;BME280;23642;42.658;23.350;2023-03-04T09:38:52;50793.31;;;-146.31;67.95
2036;BME280;23642;42.658;23.350;2023-03-04T09:41:21;50840.75;;;-146.31;69.13
2036;BME280;23642;42.658;23.350;2023-03-04T09:43:51;50865.50;;;-146.31;71.01
2036;BME280;23642;42.658;23.350;2023-03-04T09:46:24;50879.94;;;-146.31;72.15
2036;BME280;23642;42.658;23.350;2023-03-04T09:48:54;50865.50;;;-146.31;72.72
2036;BME280;23642;42.658;23.350;2023-03-04T09:51:22;50869.63;;;-146.31;74.49
2036;BME280;23642;42.658;23.350;2023-03-04T09:54:05;50818.06;;;-146.31;73.20
2036;BME280;23642;42.658;23.350;2023-03-04T09:56:36;50793.31;;;-146.31;71.12
2036;BME280;23642;42.658;23.350;2023-03-04T09:59:10;50820.13;;;-146.31;71.50
2036;BME280;23642;42.658;23.350;2023-03-04T10:01:44;50851.06;;;-146.31;71.30
2036;BME280;23642;42.658;23.350;2023-03-04T10:04:16;50807.75;;;-146.31;70.65
2036;BME280;23642;42.658;23.350;2023-03-04T10:06:43;50820.13;;;-146.31;68.71
2036;BME280;23642;42.658;23.350;2023-03-04T10:09:22;50952.13;;;-146.31;68.74
2036;BME280;23642;42.658;23.350;2023-03-04T10:11:58;50910.88;;;-146.31;68.43
2036;BME280;23642;42.658;23.350;2023-03-04T10:14:32;50960.38;;;-146.31;66.92
2036;BME280;23642;42.658;23.350;2023-03-04T10:17:06;50976.88;;;-146.31;65.84
2036;BME280;23642;42.658;23.350;2023-03-04T10:22:31;51042.88;;;-146.31;62.18
2036;BME280;23642;42.658;23.350;2023-03-04T10:25:16;51080.03;;;-146.31;64.44
2036;BME280;23642;42.658;23.350;2023-03-04T10:27:51;51077.97;;;-146.31;64.83
2036;BME280;23642;42.658;23.350;2023-03-04T10:30:30;51022.25;;;-146.31;64.47
2036;BME280;23642;42.658;23.350;2023-03-04T10:32:58;51150.16;;;-146.31;65.48
2036;BME280;23642;42.658;23.350;2023-03-04T10:35:28;51119.22;;;-146.31;64.23
2036;BME280;23642;42.658;23.350;2023-03-04T10:38:01;51067.63;;;-146.31;61.59
2036;BME280;23642;42.658;23.350;2023-03-04T10:40:36;51129.53;;;-146.31;60.18
2036;BME280;23642;42.658;23.350;2023-03-04T10:43:13;51108.91;;;-146.31;59.18
2036;BME280;23642;42.658;23.350;2023-03-04T10:45:40;51108.91;;;-146.31;58.18
2036;BME280;23642;42.658;23.350;2023-03-04T10:48:19;51174.91;;;-146.31;59.13
2036;BME280;23642;42.658;23.350;2023-03-04T10:50:46;51113.03;;;-146.31;57.93
2036;BME280;23642;42.658;23.350;2023-03-04T10:53:29;51069.69;;;-146.31;58.32
2036;BME280;23642;42.658;23.350;2023-03-04T10:55:59;50997.50;;;-146.31;59.11
2036;BME280;23642;42.658;23.350;2023-03-04T10:58:27;51020.19;;;-146.31;57.75
2036;BME280;23642;42.658;23.350;2023-03-04T11:01:02;51102.72;;;-146.31;58.54
2036;BME280;23642;42.658;23.350;2023-03-04T11:03:33;51207.91;;;-146.31;59.47
2036;BME280;23642;42.658;23.350;2023-03-04T11:06:11;51201.72;;;-146.31;60.97
2036;BME280;23642;42.658;23.350;2023-03-04T11:08:41;51170.78;;;-146.31;60.50
2036;BME280;23642;42.658;23.350;2023-03-04T11:11:40;51199.66;;;-146.31;59.88
2036;BME280;23642;42.658;23.350;2023-03-04T11:14:14;51197.59;;;-146.31;60.16
2036;BME280;23642;42.658;23.350;2023-03-04T11:20:17;51139.84;;;-146.31;59.84
2036;BME280;23642;42.658;23.350;2023-03-04T11:22:49;51162.53;;;-146.31;59.58
2036;BME280;23642;42.658;23.350;2023-03-04T11:25:23;51156.34;;;-146.31;60.13
2036;BME280;23642;42.658;23.350;2023-03-04T11:27:55;51181.09;;;-146.31;60.99
2036;BME280;23642;42.658;23.350;2023-03-04T11:30:40;51158.41;;;-146.31;58.88
2036;BME280;23642;42.658;23.350;2023-03-04T11:33:26;51127.47;;;-146.31;58.78
2036;BME280;23642;42.658;23.350;2023-03-04T11:36:01;51104.78;;;-146.31;57.20
2036;BME280;23642;42.658;23.350;2023-03-04T11:38:32;51166.66;;;-146.31;56.90
2036;BME280;23642;42.658;23.350;2023-03-04T11:41:03;51226.47;;;-146.31;58.92
2036;BME280;23642;42.658;23.350;2023-03-04T11:43:34;51191.41;;;-146.31;58.55
2036;BME280;23642;42.658;23.350;2023-03-04T11:46:18;51261.56;;;-146.31;60.06
2036;BME280;23642;42.658;23.350;2023-03-04T11:48:55;51209.97;;;-146.31;60.48
2036;BME280;23642;42.658;23.350;2023-03-04T11:51:31;51261.56;;;-146.31;61.25
2036;BME280;23642;42.658;23.350;2023-03-04T11:54:14;51201.72;;;-146.31;61.77
2036;BME280;23642;42.658;23.350;2023-03-04T11:56:43;51232.66;;;-146.31;61.82
2036;BME280;23642;42.658;23.350;2023-03-04T11:59:33;51224.41;;;-146.31;63.27
2036;BME280;23642;42.658;23.350;2023-03-04T12:02:14;51170.78;;;-146.31;62.13
2036;BME280;23642;42.658;23.350;2023-03-04T12:08:25;51166.66;;;-146.31;61.08
2036;BME280;23642;42.658;23.350;2023-03-04T12:11:01;51214.09;;;-146.31;60.35
2036;BME280;23642;42.658;23.350;2023-03-04T12:19:26;51146.03;;;-146.31;60.58
2036;BME280;23642;42.658;23.350;2023-03-04T12:22:16;51216.16;;;-146.31;61.25
2036;BME280;23642;42.658;23.350;2023-03-04T12:25:16;51228.53;;;-146.31;61.93
2036;BME280;23642;42.658;23.350;2023-03-04T12:27:52;51230.59;;;-146.31;62.30
2036;BME280;23642;42.658;23.350;2023-03-04T12:30:34;51236.78;;;-146.31;61.91
2036;BME280;23642;42.658;23.350;2023-03-04T12:33:13;51207.91;;;-146.31;61.76
2036;BME280;23642;42.658;23.350;2023-03-04T12:35:51;51226.47;;;-146.31;62.50
2036;BME280;23642;42.658;23.350;2023-03-04T12:38:32;51199.66;;;-146.31;61.76
2036;BME280;23642;42.658;23.350;2023-03-04T12:41:18;51212.03;;;-146.31;61.54
2036;BME280;23642;42.658;23.350;2023-03-04T12:43:52;51247.09;;;-146.31;61.88
2036;BME280;23642;42.658;23.350;2023-03-04T12:46:41;51220.28;;;-146.31;61.49
2036;BME280;23642;42.658;23.350;2023-03-04T12:52:04;51269.81;;;-146.31;62.03
2036;BME280;23642;42.658;23.350;2023-03-04T12:54:39;51228.53;;;-146.31;62.73
2036;BME280;23642;42.658;23.350;2023-03-04T12:57:11;51205.84;;;-146.31;62.21
2036;BME280;23642;42.658;23.350;2023-03-04T12:59:43;51255.34;;;-146.31;62.10
2036;BME280;23642;42.658;23.350;2023-03-04T13:02:28;51207.91;;;-146.31;61.48
2036;BME280;23642;42.658;23.350;2023-03-04T13:05:11;51240.91;;;-146.31;61.24
2036;BME280;23642;42.658;23.350;2023-03-04T13:07:47;51187.28;;;-146.31;61.31
2036;BME280;23642;42.658;23.350;2023-03-04T13:10:20;51185.22;;;-146.31;60.74